createdAt,value
2018-05-14T00:02:17.245Z,15.87
2018-05-14T00:04:45.013Z,13.60
2018-05-14T00:07:12.637Z,14.57
2018-05-14T00:09:40.180Z,13.10
2018-05-14T00:12:07.773Z,11.77
2018-05-14T00:14:35.340Z,12.13
2018-05-14T00:17:02.917Z,14.20
2018-05-14T00:19:30.427Z,15.30
2018-05-14T00:21:58.211Z,11.93
2018-05-14T00:24:25.735Z,15.43
2018-05-14T00:26:53.336Z,14.20
2018-05-14T00:29:21.665Z,15.37
2018-05-14T00:31:49.509Z,12.57
2018-05-14T00:34:17.316Z,12.57
2018-05-14T00:36:45.878Z,14.07
2018-05-14T00:39:13.505Z,15.10
2018-05-14T00:41:41.115Z,16.53
2018-05-14T00:44:08.628Z,13.33
2018-05-14T00:46:36.211Z,12.97
2018-05-14T00:49:07.340Z,14.23
2018-05-14T00:51:35.900Z,14.43
2018-05-14T00:54:03.444Z,17.43
2018-05-14T00:56:30.969Z,18.17
2018-05-14T00:58:58.491Z,17.17
2018-05-14T01:01:26.799Z,17.93
2018-05-14T01:03:55.125Z,14.37
2018-05-14T01:06:22.787Z,15.83
2018-05-14T01:08:51.230Z,18.13
2018-05-14T01:11:18.957Z,14.80
2018-05-14T01:13:46.750Z,16.47
2018-05-14T01:16:14.579Z,17.77
2018-05-14T01:18:42.166Z,15.00
2018-05-14T01:21:09.684Z,18.00
2018-05-14T01:23:37.257Z,14.93
2018-05-14T01:26:04.831Z,14.80
2018-05-14T01:28:32.424Z,14.47
2018-05-14T01:31:00.716Z,15.53
2018-05-14T01:33:28.997Z,13.87
2018-05-14T01:35:56.556Z,17.07
2018-05-14T01:38:24.065Z,18.63
2018-05-14T01:40:51.664Z,22.83
2018-05-14T01:43:20.230Z,19.97
2018-05-14T01:45:48.786Z,17.27
2018-05-14T01:48:16.530Z,19.10
2018-05-14T01:50:45.667Z,21.90
2018-05-14T01:53:13.349Z,17.63
2018-05-14T01:55:40.904Z,20.17
2018-05-14T01:58:09.168Z,22.77
2018-05-14T02:00:37.624Z,21.53
2018-05-14T02:03:05.316Z,20.40
2018-05-14T02:05:32.823Z,21.10
2018-05-14T02:08:00.320Z,16.47
2018-05-14T02:10:27.847Z,19.30
2018-05-14T02:12:55.355Z,26.50
2018-05-14T02:15:22.901Z,18.77
2018-05-14T02:17:51.231Z,24.17
2018-05-14T02:20:18.853Z,21.23
2018-05-14T02:22:47.498Z,18.07
2018-05-14T02:25:16.194Z,20.37
2018-05-14T02:27:45.551Z,20.03
2018-05-14T02:30:13.103Z,21.07
2018-05-14T02:32:40.668Z,21.50
2018-05-14T02:35:08.185Z,20.27
2018-05-14T02:37:35.849Z,19.97
2018-05-14T02:40:04.179Z,20.97
2018-05-14T02:42:32.501Z,21.97
2018-05-14T02:45:00.008Z,22.00
2018-05-14T02:47:27.523Z,23.40
2018-05-14T02:49:55.052Z,20.33
2018-05-14T02:52:22.615Z,23.20
2018-05-14T02:54:50.284Z,21.30
2018-05-14T02:57:18.883Z,20.53
2018-05-14T02:59:47.259Z,20.03
2018-05-14T03:02:16.184Z,17.53
2018-05-14T03:04:43.824Z,18.17
2018-05-14T03:07:11.448Z,17.03
2018-05-14T03:09:38.976Z,19.20
2018-05-14T03:12:06.704Z,24.73
2018-05-14T03:14:34.364Z,19.33
2018-05-14T03:17:02.670Z,19.83
2018-05-14T03:19:30.963Z,21.37
2018-05-14T03:21:59.241Z,18.30
2018-05-14T03:24:26.748Z,18.60
2018-05-14T03:26:55.020Z,21.73
2018-05-14T03:29:22.560Z,21.07
2018-05-14T03:31:50.357Z,20.40
2018-05-14T03:34:19.061Z,19.47
2018-05-14T03:36:46.917Z,17.70
2018-05-14T03:39:15.685Z,19.27
2018-05-14T03:41:43.291Z,18.37
2018-05-14T03:44:10.830Z,22.00
2018-05-14T03:46:38.479Z,17.27
2018-05-14T03:49:06.330Z,18.77
2018-05-14T03:51:33.890Z,16.47
2018-05-14T03:54:01.408Z,19.50
2018-05-14T03:56:28.947Z,18.83
2018-05-14T03:59:08.912Z,23.13
2018-05-14T04:01:49.114Z,21.20
2018-05-14T04:04:28.613Z,25.77
2018-05-14T04:06:56.154Z,23.97
2018-05-14T04:09:26.370Z,23.73
2018-05-14T04:11:53.920Z,23.93
2018-05-14T04:14:21.471Z,18.77
2018-05-14T04:16:49.350Z,22.77
2018-05-14T04:19:16.976Z,22.00
2018-05-14T04:21:44.575Z,20.80
2018-05-14T04:24:12.106Z,22.10
2018-05-14T04:26:39.629Z,21.03
2018-05-14T04:29:07.299Z,23.57
2018-05-14T04:31:34.985Z,23.63
2018-05-14T04:34:03.316Z,22.80
2018-05-14T04:36:30.822Z,22.03
2018-05-14T04:39:00.434Z,19.37
2018-05-14T04:41:27.967Z,21.13
2018-05-14T04:43:55.535Z,20.33
2018-05-14T04:46:23.828Z,18.70
2018-05-14T04:48:52.184Z,17.30
2018-05-14T04:51:19.978Z,19.27
2018-05-14T04:53:47.710Z,20.47
2018-05-14T04:56:15.518Z,21.63
2018-05-14T04:58:43.090Z,20.70
2018-05-14T05:01:11.359Z,19.37
2018-05-14T05:03:38.950Z,20.63
2018-05-14T05:06:06.592Z,23.97
2018-05-14T05:08:34.145Z,17.17
2018-05-14T05:11:02.438Z,22.80
2018-05-14T05:13:29.974Z,19.67
2018-05-14T05:15:57.499Z,20.47
2018-05-14T05:18:25.040Z,24.23
2018-05-14T05:20:53.315Z,21.80
2018-05-14T05:23:20.948Z,23.07
2018-05-14T05:25:49.368Z,21.23
2018-05-14T05:28:17.086Z,20.67
2018-05-14T05:30:44.756Z,19.90
2018-05-14T05:33:12.312Z,27.87
2018-05-14T05:35:39.810Z,22.13
2018-05-14T05:38:08.125Z,21.57
2018-05-14T05:40:37.648Z,26.30
2018-05-14T05:43:06.043Z,22.90
2018-05-14T05:45:33.556Z,19.53
2018-05-14T05:48:01.091Z,17.90
2018-05-14T05:50:28.612Z,18.63
2018-05-14T05:52:56.904Z,21.23
2018-05-14T05:55:24.435Z,17.40
2018-05-14T05:57:52.851Z,17.50
2018-05-14T06:00:21.251Z,19.67
2018-05-14T06:02:48.825Z,21.23
2018-05-14T06:05:17.459Z,23.03
2018-05-14T06:07:47.879Z,25.07
2018-05-14T06:10:17.268Z,20.00
2018-05-14T06:12:44.905Z,18.43
2018-05-14T06:15:12.631Z,24.37
2018-05-14T06:17:40.164Z,25.90
2018-05-14T06:20:08.502Z,22.80
2018-05-14T06:22:36.880Z,22.83
2018-05-14T06:25:05.250Z,25.43
2018-05-14T06:27:32.879Z,23.87
2018-05-14T06:30:00.393Z,20.63
2018-05-14T06:32:28.658Z,18.10
2018-05-14T06:34:56.966Z,18.83
2018-05-14T06:37:24.480Z,19.57
2018-05-14T06:39:52.783Z,18.93
2018-05-14T06:42:20.708Z,19.83
2018-05-14T06:44:49.049Z,21.07
2018-05-14T06:47:16.659Z,19.57
2018-05-14T06:49:44.371Z,21.40
2018-05-14T06:52:12.648Z,20.10
2018-05-14T06:54:40.198Z,19.43
2018-05-14T06:57:07.758Z,21.77
2018-05-14T06:59:35.501Z,19.50
2018-05-14T07:02:03.008Z,18.53
2018-05-14T07:04:30.540Z,17.57
2018-05-14T07:06:58.055Z,15.17
2018-05-14T07:09:25.589Z,18.37
2018-05-14T07:11:53.116Z,19.77
2018-05-14T07:14:20.706Z,16.77
2018-05-14T07:16:48.331Z,15.30
2018-05-14T07:19:16.664Z,17.00
2018-05-14T07:21:44.268Z,17.83
2018-05-14T07:24:11.867Z,17.70
2018-05-14T07:26:39.355Z,20.20
2018-05-14T07:29:06.867Z,19.37
2018-05-14T07:31:35.155Z,19.10
2018-05-14T07:34:02.679Z,17.53
2018-05-14T07:36:30.931Z,17.13
2018-05-14T07:38:58.397Z,15.60
2018-05-14T07:41:25.887Z,14.07
2018-05-14T07:43:53.401Z,16.47
2018-05-14T07:46:20.941Z,14.93
2018-05-14T07:48:48.582Z,14.83
2018-05-14T07:51:16.836Z,14.33
2018-05-14T07:53:44.598Z,14.87
2018-05-14T07:56:12.134Z,12.90
2018-05-14T07:58:39.611Z,14.83
2018-05-14T08:01:07.132Z,15.67
2018-05-14T08:03:34.646Z,15.17
2018-05-14T08:06:02.188Z,16.47
2018-05-14T08:08:29.655Z,14.03
2018-05-14T08:10:57.190Z,17.90
2018-05-14T08:13:24.619Z,15.13
2018-05-14T08:15:52.127Z,17.47
2018-05-14T08:18:20.378Z,15.23
2018-05-14T08:20:48.152Z,15.20
2018-05-14T08:23:15.782Z,18.10
2018-05-14T08:25:43.276Z,17.63
2018-05-14T08:28:10.794Z,16.20
2018-05-14T08:30:39.027Z,16.67
2018-05-14T08:33:06.571Z,16.00
2018-05-14T08:35:34.034Z,16.67
2018-05-14T08:38:01.519Z,21.07
2018-05-14T08:40:28.999Z,19.83
2018-05-14T08:42:56.491Z,19.30
2018-05-14T08:45:23.967Z,17.67
2018-05-14T08:47:51.526Z,22.20
2018-05-14T08:50:19.102Z,20.53
2018-05-14T08:52:46.873Z,16.80
2018-05-14T08:55:14.588Z,17.57
2018-05-14T08:57:42.148Z,16.93
2018-05-14T09:00:10.417Z,18.63
2018-05-14T09:02:37.926Z,21.67
2018-05-14T09:05:05.454Z,19.27
2018-05-14T09:07:33.702Z,20.37
2018-05-14T09:10:01.180Z,22.20
2018-05-14T09:12:28.673Z,17.93
2018-05-14T09:14:56.145Z,19.97
2018-05-14T09:17:23.715Z,17.40
2018-05-14T09:19:51.229Z,19.93
2018-05-14T09:22:18.877Z,15.97
2018-05-14T09:24:46.463Z,17.90
2018-05-14T09:27:14.041Z,21.27
2018-05-14T09:29:43.497Z,20.33
2018-05-14T09:32:11.838Z,21.10
2018-05-14T09:34:39.331Z,18.03
2018-05-14T09:37:06.943Z,20.40
2018-05-14T09:39:35.323Z,19.53
2018-05-14T09:42:03.577Z,19.33
2018-05-14T09:44:31.098Z,23.67
2018-05-14T09:46:58.538Z,21.67
2018-05-14T09:49:26.730Z,21.53
2018-05-14T09:51:54.205Z,21.37
2018-05-14T09:54:21.923Z,17.83
2018-05-14T09:56:50.214Z,14.70
2018-05-14T09:59:18.714Z,20.63
2018-05-14T10:01:46.507Z,20.73
2018-05-14T10:04:14.410Z,17.20
2018-05-14T10:06:41.911Z,16.67
2018-05-14T10:09:12.415Z,22.50
2018-05-14T10:11:39.903Z,19.30
2018-05-14T10:14:07.378Z,18.37
2018-05-14T10:16:34.861Z,19.97
2018-05-14T10:19:02.338Z,20.07
2018-05-14T10:21:29.818Z,19.40
2018-05-14T10:23:57.289Z,18.53
2018-05-14T10:26:24.814Z,16.97
2018-05-14T10:28:52.318Z,25.40
2018-05-14T10:31:19.835Z,16.90
2018-05-14T10:33:48.225Z,18.83
2018-05-14T10:36:16.124Z,18.90
2018-05-14T10:38:43.673Z,17.77
2018-05-14T10:41:11.603Z,21.63
2018-05-14T10:43:39.243Z,20.17
2018-05-14T10:46:07.592Z,18.07
2018-05-14T10:48:35.084Z,22.27
2018-05-14T10:51:03.463Z,15.70
2018-05-14T10:53:30.930Z,21.20
2018-05-14T10:56:07.065Z,18.60
2018-05-14T10:58:35.452Z,20.20
2018-05-14T11:01:07.349Z,17.73
2018-05-14T11:03:35.619Z,16.97
2018-05-14T11:06:03.139Z,16.73
2018-05-14T11:08:30.611Z,17.47
2018-05-14T11:10:58.100Z,15.37
2018-05-14T11:13:25.575Z,14.23
2018-05-14T11:15:53.131Z,18.23
2018-05-14T11:18:20.761Z,16.30
2018-05-14T11:20:48.539Z,16.87
2018-05-14T11:23:16.348Z,16.43
2018-05-14T11:25:43.832Z,19.43
2018-05-14T11:28:12.103Z,21.50
2018-05-14T11:30:40.346Z,20.93
2018-05-14T11:33:08.635Z,18.33
2018-05-14T11:35:36.917Z,18.63
2018-05-14T11:38:04.406Z,19.17
2018-05-14T11:40:31.882Z,18.60
2018-05-14T11:42:59.366Z,15.30
2018-05-14T11:45:26.893Z,15.70
2018-05-14T11:47:54.426Z,17.20
2018-05-14T11:50:22.044Z,16.83
2018-05-14T11:52:49.618Z,24.73
2018-05-14T11:55:17.343Z,17.40
2018-05-14T11:57:45.174Z,16.80
2018-05-14T12:00:12.720Z,16.93
2018-05-14T12:02:40.299Z,17.33
2018-05-14T12:05:07.827Z,16.90
2018-05-14T12:07:35.383Z,14.77
2018-05-14T12:10:02.906Z,14.80
2018-05-14T12:12:30.359Z,13.60
2018-05-14T12:14:57.918Z,11.23
2018-05-14T12:17:25.608Z,10.37
2018-05-14T12:19:54.019Z,10.63
2018-05-14T12:22:21.654Z,10.27
2018-05-14T12:24:49.461Z,10.20
2018-05-14T12:27:17.063Z,9.63
2018-05-14T12:29:44.648Z,11.37
2018-05-14T12:32:12.158Z,6.50
2018-05-14T12:34:39.655Z,5.10
2018-05-14T12:37:07.136Z,7.43
2018-05-14T12:39:34.601Z,4.27
2018-05-14T12:42:02.079Z,4.63
2018-05-14T12:44:29.545Z,5.00
2018-05-14T12:46:57.009Z,2.97
2018-05-14T12:49:25.252Z,2.73
2018-05-14T12:51:52.914Z,2.63
2018-05-14T12:54:20.710Z,3.23
2018-05-14T12:56:48.491Z,10.60
2018-05-14T12:59:16.180Z,3.70
2018-05-14T13:01:43.710Z,7.67
2018-05-14T13:04:11.207Z,3.63
2018-05-14T13:06:38.670Z,4.30
2018-05-14T13:09:06.133Z,8.40
2018-05-14T13:11:33.610Z,6.10
2018-05-14T13:14:01.079Z,4.43
2018-05-14T13:16:28.560Z,6.90
2018-05-14T13:18:56.782Z,5.90
2018-05-14T13:21:24.262Z,4.20
2018-05-14T13:23:58.830Z,3.47
2018-05-14T13:26:26.531Z,6.27
2018-05-14T13:28:54.247Z,4.60
2018-05-14T13:31:21.855Z,4.50
2018-05-14T13:33:49.822Z,4.73
2018-05-14T13:36:17.435Z,3.93
2018-05-14T13:38:45.074Z,3.47
2018-05-14T13:41:12.748Z,10.33
2018-05-14T13:43:40.909Z,3.47
2018-05-14T13:46:08.805Z,3.07
2018-05-14T13:48:37.070Z,2.90
2018-05-14T13:51:04.637Z,7.37
2018-05-14T13:53:32.827Z,4.57
2018-05-14T13:56:00.315Z,3.03
2018-05-14T13:58:27.783Z,3.47
2018-05-14T14:00:55.245Z,3.47
2018-05-14T14:03:22.754Z,4.00
2018-05-14T14:05:50.401Z,3.63
2018-05-14T14:08:18.716Z,3.87
2018-05-14T14:10:46.335Z,6.77
2018-05-14T14:13:13.903Z,4.87
2018-05-14T14:15:41.411Z,4.30
2018-05-14T14:18:08.988Z,4.27
2018-05-14T14:20:36.519Z,4.17
2018-05-14T14:23:05.052Z,4.10
2018-05-14T14:25:32.428Z,5.00
2018-05-14T14:27:59.906Z,11.10
2018-05-14T14:30:27.369Z,7.07
2018-05-14T14:32:55.614Z,5.97
2018-05-14T14:35:23.203Z,7.03
2018-05-14T14:37:50.851Z,8.57
2018-05-14T14:40:18.635Z,7.23
2018-05-14T14:42:46.310Z,8.13
2018-05-14T14:45:13.862Z,6.17
2018-05-14T14:47:45.326Z,9.83
2018-05-14T14:50:12.923Z,8.07
2018-05-14T14:52:40.503Z,9.13
2018-05-14T14:55:07.982Z,6.60
2018-05-14T14:57:35.447Z,6.50
2018-05-14T15:00:02.937Z,9.40
2018-05-14T15:02:30.409Z,11.53
2018-05-14T15:04:57.944Z,11.83
2018-05-14T15:07:27.929Z,8.27
2018-05-14T15:09:55.478Z,14.93
2018-05-14T15:12:23.033Z,4.87
2018-05-14T15:14:50.573Z,3.37
2018-05-14T15:17:18.138Z,4.10
2018-05-14T15:19:45.910Z,3.50
2018-05-14T15:22:13.372Z,8.37
2018-05-14T15:24:40.850Z,3.67
2018-05-14T15:27:08.313Z,3.07
2018-05-14T15:29:35.797Z,5.20
2018-05-14T15:32:03.278Z,5.17
2018-05-14T15:34:31.281Z,3.00
2018-05-14T15:36:58.765Z,3.37
2018-05-14T15:39:26.239Z,10.63
2018-05-14T15:41:53.718Z,6.17
2018-05-14T15:44:21.245Z,4.50
2018-05-14T15:46:48.804Z,2.80
2018-05-14T15:49:16.393Z,3.80
2018-05-14T15:51:43.958Z,5.23
2018-05-14T15:54:12.263Z,7.77
2018-05-14T15:56:41.530Z,4.50
2018-05-14T15:59:08.992Z,3.67
2018-05-14T16:01:36.530Z,6.00
2018-05-14T16:04:04.872Z,4.03
2018-05-14T16:06:32.506Z,3.73
2018-05-14T16:09:00.751Z,5.43
2018-05-14T16:11:28.228Z,4.27
2018-05-14T16:13:55.767Z,3.87
2018-05-14T16:16:24.027Z,5.27
2018-05-14T16:18:51.507Z,4.67
2018-05-14T16:21:19.103Z,3.87
2018-05-14T16:23:46.654Z,4.00
2018-05-14T16:26:14.243Z,7.43
2018-05-14T16:28:42.720Z,4.60
2018-05-14T16:31:10.260Z,3.60
2018-05-14T16:33:38.497Z,4.23
2018-05-14T16:36:06.753Z,3.80
2018-05-14T16:38:34.276Z,7.07
2018-05-14T16:41:02.511Z,5.17
2018-05-14T16:43:29.987Z,3.53
2018-05-14T16:45:57.459Z,4.13
2018-05-14T16:48:25.568Z,3.27
2018-05-14T16:50:53.083Z,5.27
2018-05-14T16:53:20.590Z,4.87
2018-05-14T16:55:48.154Z,3.63
2018-05-14T16:58:16.038Z,3.33
2018-05-14T17:00:43.845Z,6.83
2018-05-14T17:03:12.192Z,6.33
2018-05-14T17:05:40.466Z,6.00
2018-05-14T17:08:08.299Z,4.00
2018-05-14T17:10:35.790Z,3.40
2018-05-14T17:13:03.367Z,5.27
2018-05-14T17:15:30.843Z,3.97
2018-05-14T17:17:58.495Z,4.90
2018-05-14T17:20:26.924Z,6.50
2018-05-14T17:22:55.411Z,4.37
2018-05-14T17:25:23.783Z,8.27
2018-05-14T17:27:52.207Z,3.33
2018-05-14T17:30:19.819Z,4.03
2018-05-14T17:32:49.197Z,3.10
2018-05-14T17:35:17.635Z,1.90
2018-05-14T17:37:46.029Z,6.20
2018-05-14T17:40:14.578Z,2.20
2018-05-14T17:42:42.089Z,4.33
2018-05-14T17:45:09.567Z,2.33
2018-05-14T17:47:38.160Z,1.67
2018-05-14T17:50:05.636Z,2.20
2018-05-14T17:52:33.872Z,1.40
2018-05-14T17:55:01.345Z,1.67
2018-05-14T17:57:29.019Z,3.00
2018-05-14T17:59:58.254Z,2.90
2018-05-14T18:02:25.996Z,1.70
2018-05-14T18:04:53.712Z,4.10
2018-05-14T18:07:21.269Z,4.63
2018-05-14T18:09:49.582Z,1.50
2018-05-14T18:12:17.105Z,3.80
2018-05-14T18:14:44.837Z,7.60
2018-05-14T18:17:13.101Z,1.20
2018-05-14T18:19:46.443Z,3.43
2018-05-14T18:22:19.770Z,1.53
2018-05-14T18:24:51.119Z,1.47
2018-05-14T18:27:24.295Z,1.20
2018-05-14T18:29:54.363Z,1.43
2018-05-14T18:32:21.893Z,1.77
2018-05-14T18:34:58.121Z,2.17
2018-05-14T18:37:26.376Z,1.30
2018-05-14T18:39:54.035Z,2.23
2018-05-14T18:42:21.515Z,1.73
2018-05-14T18:44:49.059Z,1.70
2018-05-14T18:47:16.658Z,1.53
2018-05-14T18:49:44.172Z,2.50
2018-05-14T18:52:11.692Z,1.37
2018-05-14T18:54:39.146Z,3.83
2018-05-14T18:57:07.457Z,2.00
2018-05-14T18:59:34.952Z,1.33
2018-05-14T19:02:02.417Z,3.80
2018-05-14T19:04:29.897Z,8.80
2018-05-14T19:06:57.378Z,1.90
2018-05-14T19:09:24.859Z,1.67
2018-05-14T19:11:52.331Z,2.10
2018-05-14T19:14:19.944Z,2.50
2018-05-14T19:16:53.162Z,3.63
2018-05-14T19:19:20.769Z,2.13
2018-05-14T19:21:48.270Z,1.93
2018-05-14T19:24:15.799Z,2.80
2018-05-14T19:26:43.291Z,2.13
2018-05-14T19:29:16.473Z,3.47
2018-05-14T19:31:45.038Z,1.80
2018-05-14T19:34:18.349Z,4.40
2018-05-14T19:36:45.936Z,4.33
2018-05-14T19:39:13.642Z,3.70
2018-05-14T19:41:42.550Z,4.37
2018-05-14T19:44:09.972Z,2.63
2018-05-14T19:46:38.243Z,2.67
2018-05-14T19:49:05.775Z,1.80
2018-05-14T19:51:34.873Z,3.00
2018-05-14T19:54:02.372Z,5.47
2018-05-14T19:56:31.310Z,1.70
2018-05-14T19:58:58.819Z,2.23
2018-05-14T20:01:26.380Z,2.00
2018-05-14T20:03:53.936Z,2.03
2018-05-14T20:06:22.228Z,1.83
2018-05-14T20:08:50.550Z,2.33
2018-05-14T20:11:18.879Z,3.37
2018-05-14T20:13:46.562Z,4.97
2018-05-14T20:16:14.163Z,2.57
2018-05-14T20:18:41.700Z,4.00
2018-05-14T20:21:09.983Z,2.13
2018-05-14T20:23:37.510Z,1.90
2018-05-14T20:26:05.048Z,5.97
2018-05-14T20:28:32.609Z,1.80
2018-05-14T20:31:00.126Z,2.97
2018-05-14T20:33:28.319Z,2.87
2018-05-14T20:35:55.892Z,2.07
2018-05-14T20:38:23.395Z,3.43
2018-05-14T20:40:50.947Z,2.23
2018-05-14T20:43:18.605Z,4.57
2018-05-14T20:45:46.293Z,2.20
2018-05-14T20:48:13.803Z,3.87
2018-05-14T20:50:41.412Z,3.80
2018-05-14T20:53:08.956Z,2.30
2018-05-14T20:55:36.571Z,1.87
2018-05-14T20:58:04.473Z,1.77
2018-05-14T21:00:32.122Z,1.70
2018-05-14T21:02:59.655Z,1.77
2018-05-14T21:05:27.948Z,2.10
2018-05-14T21:07:57.412Z,2.80
2018-05-14T21:10:24.942Z,3.87
2018-05-14T21:12:52.646Z,2.10
2018-05-14T21:15:20.247Z,3.50
2018-05-14T21:17:48.847Z,3.73
2018-05-14T21:20:16.663Z,2.27
2018-05-14T21:22:45.212Z,2.27
2018-05-14T21:25:12.827Z,2.97
2018-05-14T21:27:40.356Z,2.53
2018-05-14T21:30:07.879Z,3.63
2018-05-14T21:32:35.498Z,3.93
2018-05-14T21:35:03.784Z,2.33
2018-05-14T21:37:32.087Z,2.50
2018-05-14T21:39:59.668Z,2.93
2018-05-14T21:42:27.167Z,4.23
2018-05-14T21:44:54.663Z,4.60
2018-05-14T21:47:22.918Z,2.50
2018-05-14T21:49:51.348Z,9.13
2018-05-14T21:52:19.696Z,2.93
2018-05-14T21:54:47.355Z,3.10
2018-05-14T21:57:15.731Z,3.97
2018-05-14T21:59:43.285Z,3.87
2018-05-14T22:02:10.792Z,6.17
2018-05-14T22:04:38.332Z,3.20
2018-05-14T22:07:05.944Z,7.63
2018-05-14T22:09:33.466Z,4.30
2018-05-14T22:12:01.729Z,6.67
2018-05-14T22:14:30.030Z,6.00
2018-05-14T22:16:57.536Z,6.07
2018-05-14T22:19:25.026Z,4.87
2018-05-14T22:21:52.551Z,7.20
2018-05-14T22:24:20.103Z,6.23
2018-05-14T22:29:39.452Z,4.10
2018-05-14T22:32:07.744Z,3.87
2018-05-14T22:34:35.338Z,3.37
2018-05-14T22:37:02.892Z,3.00
2018-05-14T22:39:30.394Z,4.07
2018-05-14T22:41:57.921Z,3.97
2018-05-14T22:44:25.426Z,4.13
2018-05-14T22:46:53.724Z,9.17
2018-05-14T22:49:21.297Z,3.13
2018-05-14T22:51:48.995Z,4.10
2018-05-14T22:54:28.252Z,4.73
2018-05-14T22:56:55.780Z,3.93
2018-05-14T22:59:23.301Z,3.47
2018-05-14T23:01:50.833Z,4.20
2018-05-14T23:04:18.467Z,3.47
2018-05-14T23:06:45.987Z,6.83
2018-05-14T23:09:13.541Z,4.77
2018-05-14T23:11:41.032Z,3.97
2018-05-14T23:14:08.528Z,3.73
2018-05-14T23:16:36.141Z,4.40
2018-05-14T23:19:03.675Z,3.97
2018-05-14T23:21:32.015Z,5.17
2018-05-14T23:23:59.534Z,7.33
2018-05-14T23:26:27.833Z,5.77
2018-05-14T23:28:56.120Z,3.73
2018-05-14T23:31:23.646Z,6.03
2018-05-14T23:33:51.187Z,4.17
2018-05-14T23:36:19.569Z,3.23
2018-05-14T23:38:47.121Z,5.47
2018-05-14T23:41:14.785Z,3.97
2018-05-14T23:43:42.289Z,3.27
2018-05-14T23:46:10.161Z,3.63
2018-05-14T23:48:38.457Z,4.27
2018-05-14T23:51:06.848Z,3.03
2018-05-14T23:53:34.426Z,2.83
2018-05-14T23:56:01.984Z,5.70
2018-05-14T23:58:29.508Z,2.93
